createdAt,value
2019-05-14T00:00:14.037Z,11.93
2019-05-14T00:02:43.394Z,9.60
2019-05-14T00:05:12.946Z,9.20
2019-05-14T00:07:42.190Z,9.63
2019-05-14T00:10:12.041Z,8.93
2019-05-14T00:12:41.881Z,12.30
2019-05-14T00:15:11.750Z,13.53
2019-05-14T00:17:41.657Z,11.97
2019-05-14T00:20:13.375Z,10.77
2019-05-14T00:22:43.001Z,11.00
2019-05-14T00:25:12.250Z,9.00
2019-05-14T00:27:41.667Z,11.60
2019-05-14T00:30:11.578Z,11.73
2019-05-14T00:32:41.597Z,10.43
2019-05-14T00:35:11.293Z,11.20
2019-05-14T00:37:41.449Z,14.97
2019-05-14T00:40:11.832Z,11.07
2019-05-14T00:42:41.626Z,10.80
2019-05-14T00:45:11.727Z,9.77
2019-05-14T00:47:41.749Z,10.80
2019-05-14T00:50:12.957Z,13.17
2019-05-14T00:52:45.826Z,11.17
2019-05-14T00:55:13.594Z,13.70
2019-05-14T00:57:42.885Z,12.83
2019-05-14T01:00:12.414Z,12.67
2019-05-14T01:02:41.820Z,14.80
2019-05-14T01:05:12.393Z,12.87
2019-05-14T01:07:42.466Z,13.63
2019-05-14T01:10:11.957Z,11.60
2019-05-14T01:12:41.573Z,11.63
2019-05-14T01:15:14.025Z,11.30
2019-05-14T01:17:42.298Z,12.73
2019-05-14T01:20:12.345Z,15.83
2019-05-14T01:22:42.341Z,9.80
2019-05-14T01:25:12.178Z,11.57
2019-05-14T01:27:41.571Z,10.47
2019-05-14T01:30:12.460Z,12.43
2019-05-14T01:32:42.208Z,13.93
2019-05-14T01:35:12.249Z,11.30
2019-05-14T01:37:41.897Z,13.73
2019-05-14T01:40:11.621Z,15.33
2019-05-14T01:42:41.596Z,16.40
2019-05-14T01:45:24.280Z,16.60
2019-05-14T01:47:42.422Z,16.17
2019-05-14T01:50:11.694Z,14.90
2019-05-14T01:52:41.599Z,18.23
2019-05-14T01:55:11.519Z,18.77
2019-05-14T01:57:42.511Z,15.70
2019-05-14T02:00:12.773Z,19.53
2019-05-14T02:02:42.054Z,18.90
2019-05-14T02:05:12.493Z,21.70
2019-05-14T02:07:42.175Z,19.07
2019-05-14T02:10:12.001Z,20.17
2019-05-14T02:12:42.327Z,21.27
2019-05-14T02:15:12.351Z,16.23
2019-05-14T02:17:41.697Z,17.63
2019-05-14T02:20:12.623Z,14.43
2019-05-14T02:22:42.169Z,17.90
2019-05-14T02:25:11.772Z,16.60
2019-05-14T02:27:41.502Z,16.70
2019-05-14T02:30:12.124Z,16.37
2019-05-14T02:32:41.861Z,15.33
2019-05-14T02:35:11.206Z,17.17
2019-05-14T02:37:40.668Z,16.40
2019-05-14T02:40:10.424Z,15.23
2019-05-14T02:42:40.433Z,14.77
2019-05-14T02:45:10.292Z,15.47
2019-05-14T02:47:40.037Z,16.50
2019-05-14T02:50:10.121Z,17.13
2019-05-14T02:52:40.500Z,15.30
2019-05-14T02:55:10.199Z,13.37
2019-05-14T02:57:39.672Z,13.27
2019-05-14T03:00:10.343Z,15.80
2019-05-14T03:02:40.306Z,12.23
2019-05-14T03:05:10.412Z,13.73
2019-05-14T03:07:39.903Z,15.20
2019-05-14T03:10:10.219Z,14.10
2019-05-14T03:12:40.010Z,18.87
2019-05-14T03:15:10.106Z,13.87
2019-05-14T03:17:40.411Z,17.33
2019-05-14T03:20:10.031Z,18.17
2019-05-14T03:22:55.015Z,16.47
2019-05-14T03:25:10.833Z,17.30
2019-05-14T03:27:40.674Z,16.93
2019-05-14T03:30:13.031Z,17.97
2019-05-14T03:32:43.084Z,17.47
2019-05-14T03:35:14.451Z,16.90
2019-05-14T03:37:43.999Z,18.33
2019-05-14T03:40:13.753Z,23.93
2019-05-14T03:42:43.010Z,18.40
2019-05-14T03:45:12.578Z,22.90
2019-05-14T03:47:41.848Z,20.17
2019-05-14T03:50:11.303Z,22.77
2019-05-14T03:52:40.551Z,21.50
2019-05-14T03:55:10.132Z,20.27
2019-05-14T03:57:40.083Z,21.80
2019-05-14T04:00:10.536Z,32.80
2019-05-14T04:02:40.318Z,21.07
2019-05-14T04:05:09.782Z,20.83
2019-05-14T04:07:40.537Z,21.47
2019-05-14T04:10:10.523Z,22.23
2019-05-14T04:12:42.402Z,24.27
2019-05-14T04:15:12.071Z,22.67
2019-05-14T04:17:43.022Z,23.40
2019-05-14T04:20:12.487Z,20.90
2019-05-14T04:22:41.813Z,24.77
2019-05-14T04:25:11.710Z,22.47
2019-05-14T04:27:41.627Z,23.70
2019-05-14T04:30:11.792Z,21.63
2019-05-14T04:32:42.805Z,18.07
2019-05-14T04:35:13.210Z,18.83
2019-05-14T04:37:42.918Z,19.37
2019-05-14T04:40:12.294Z,18.87
2019-05-14T04:42:41.568Z,18.63
2019-05-14T04:45:11.598Z,17.50
2019-05-14T04:47:42.355Z,16.37
2019-05-14T04:50:12.181Z,16.87
2019-05-14T04:52:41.513Z,19.40
2019-05-14T04:55:10.774Z,16.70
2019-05-14T04:57:40.070Z,15.80
2019-05-14T05:00:12.374Z,16.37
2019-05-14T05:02:40.840Z,17.83
2019-05-14T05:05:10.249Z,18.10
2019-05-14T05:07:40.553Z,17.30
2019-05-14T05:10:10.821Z,18.17
2019-05-14T05:12:40.169Z,14.77
2019-05-14T05:15:10.159Z,17.67
2019-05-14T05:17:47.721Z,15.20
2019-05-14T05:20:10.656Z,13.33
2019-05-14T05:22:40.205Z,15.20
2019-05-14T05:25:09.585Z,16.10
2019-05-14T05:27:38.885Z,17.53
2019-05-14T05:30:09.066Z,16.20
2019-05-14T05:32:39.094Z,17.97
2019-05-14T05:35:09.452Z,14.87
2019-05-14T05:37:39.206Z,20.50
2019-05-14T05:40:09.332Z,16.07
2019-05-14T05:42:39.369Z,14.80
2019-05-14T05:45:09.262Z,12.73
2019-05-14T05:47:39.156Z,14.33
2019-05-14T05:50:09.507Z,12.23
2019-05-14T05:52:39.007Z,13.80
2019-05-14T05:55:09.231Z,15.37
2019-05-14T05:57:39.174Z,14.23
2019-05-14T06:00:09.714Z,11.63
2019-05-14T06:02:39.802Z,11.87
2019-05-14T06:05:10.222Z,13.47
2019-05-14T06:07:39.782Z,11.33
2019-05-14T06:10:09.662Z,11.70
2019-05-14T06:12:39.713Z,10.57
2019-05-14T06:15:09.331Z,14.83
2019-05-14T06:17:39.403Z,9.50
2019-05-14T06:20:09.110Z,10.20
2019-05-14T06:22:38.693Z,11.67
2019-05-14T06:25:10.917Z,13.63
2019-05-14T06:27:39.274Z,9.67
2019-05-14T06:30:09.502Z,9.80
2019-05-14T06:32:38.994Z,7.90
2019-05-14T06:35:09.087Z,11.63
2019-05-14T06:37:38.699Z,12.53
2019-05-14T06:40:08.952Z,10.73
2019-05-14T06:42:39.484Z,9.77
2019-05-14T06:45:09.457Z,12.23
2019-05-14T06:47:39.223Z,10.63
2019-05-14T06:50:12.050Z,12.67
2019-05-14T06:52:41.638Z,8.37
2019-05-14T06:55:13.910Z,12.17
2019-05-14T06:57:43.210Z,9.57
2019-05-14T07:00:13.581Z,13.60
2019-05-14T07:02:45.900Z,13.03
2019-05-14T07:05:18.661Z,12.20
2019-05-14T07:07:49.387Z,8.60
2019-05-14T07:10:23.331Z,13.97
2019-05-14T07:12:52.762Z,11.07
2019-05-14T07:15:29.179Z,10.03
2019-05-14T07:18:01.698Z,7.30
2019-05-14T07:20:33.318Z,8.63
2019-05-14T07:23:03.833Z,10.13
2019-05-14T07:25:33.117Z,8.00
2019-05-14T07:28:02.601Z,7.37
2019-05-14T07:30:34.919Z,10.17
2019-05-14T07:33:06.483Z,7.83
2019-05-14T07:35:38.271Z,7.70
2019-05-14T07:38:10.765Z,10.47
2019-05-14T07:40:40.066Z,7.70
2019-05-14T07:43:11.479Z,7.07
2019-05-14T07:45:42.641Z,7.33
2019-05-14T07:48:11.914Z,10.80
2019-05-14T07:50:48.067Z,9.13
2019-05-14T07:53:17.932Z,6.27
2019-05-14T07:55:49.096Z,6.63
2019-05-14T07:58:19.581Z,7.03
2019-05-14T08:00:49.411Z,5.70
2019-05-14T08:03:19.049Z,6.47
2019-05-14T08:05:48.722Z,5.33
2019-05-14T08:08:18.731Z,7.10
2019-05-14T08:10:51.001Z,4.80
2019-05-14T08:13:23.387Z,7.00
2019-05-14T08:15:58.164Z,6.07
2019-05-14T08:18:29.028Z,5.87
2019-05-14T08:20:59.175Z,6.87
2019-05-14T08:23:28.937Z,4.43
2019-05-14T08:26:04.038Z,6.30
2019-05-14T08:28:38.238Z,3.37
2019-05-14T08:31:09.361Z,4.97
2019-05-14T08:33:39.678Z,4.10
2019-05-14T08:36:09.441Z,2.50
2019-05-14T08:38:40.065Z,6.03
2019-05-14T08:41:09.389Z,6.03
2019-05-14T08:43:44.817Z,5.10
2019-05-14T08:46:19.232Z,4.33
2019-05-14T08:48:53.956Z,6.83
2019-05-14T08:51:23.291Z,3.90
2019-05-14T08:53:54.218Z,2.83
2019-05-14T08:56:27.755Z,3.97
2019-05-14T08:59:00.834Z,3.73
2019-05-14T09:01:33.295Z,4.20
2019-05-14T09:04:03.932Z,3.77
2019-05-14T09:06:34.014Z,3.63
2019-05-14T09:09:10.585Z,6.57
2019-05-14T09:11:45.308Z,3.57
2019-05-14T09:14:18.820Z,9.33
2019-05-14T09:16:51.473Z,4.43
2019-05-14T09:19:24.924Z,3.87
2019-05-14T09:21:54.262Z,6.30
2019-05-14T09:24:23.985Z,12.60
2019-05-14T09:26:53.314Z,4.90
2019-05-14T09:29:26.056Z,5.63
2019-05-14T09:31:58.757Z,7.90
2019-05-14T09:34:30.403Z,7.30
2019-05-14T09:36:59.686Z,5.47
2019-05-14T09:39:30.087Z,4.60
2019-05-14T09:41:59.530Z,6.43
2019-05-14T09:44:31.940Z,7.80
2019-05-14T09:47:02.874Z,5.77
2019-05-14T09:49:32.151Z,6.33
2019-05-14T09:52:01.494Z,6.03
2019-05-14T09:54:30.796Z,5.03
2019-05-14T09:57:02.414Z,6.60
2019-05-14T09:59:33.777Z,5.93
2019-05-14T10:02:03.101Z,7.03
2019-05-14T10:04:32.766Z,7.30
2019-05-14T10:07:02.077Z,5.47
2019-05-14T10:09:31.407Z,5.33
2019-05-14T10:12:00.682Z,5.83
2019-05-14T10:14:30.021Z,9.23
2019-05-14T10:17:04.329Z,10.70
2019-05-14T10:19:33.684Z,12.00
2019-05-14T10:22:03.075Z,8.00
2019-05-14T10:24:32.562Z,8.53
2019-05-14T10:27:04.942Z,9.93
2019-05-14T10:29:34.302Z,8.27
2019-05-14T10:32:08.694Z,10.97
2019-05-14T10:34:38.458Z,8.43
2019-05-14T10:37:11.434Z,9.70
2019-05-14T10:39:49.782Z,11.13
2019-05-14T10:42:22.038Z,8.57
2019-05-14T10:45:01.260Z,7.40
2019-05-14T10:47:33.402Z,9.47
2019-05-14T10:50:02.698Z,14.93
2019-05-14T10:52:31.984Z,12.63
2019-05-14T10:55:04.978Z,10.87
2019-05-14T10:57:34.341Z,11.97
2019-05-14T11:00:04.198Z,13.03
2019-05-14T11:02:33.459Z,13.70
2019-05-14T11:05:02.770Z,11.17
2019-05-14T11:07:32.103Z,13.70
2019-05-14T11:10:01.384Z,19.37
2019-05-14T11:12:30.803Z,13.20
2019-05-14T11:15:00.284Z,13.80
2019-05-14T11:17:29.577Z,12.10
2019-05-14T11:19:58.740Z,9.77
2019-05-14T11:22:28.928Z,8.73
2019-05-14T11:24:59.099Z,10.03
2019-05-14T11:27:29.229Z,9.27
2019-05-14T11:29:58.854Z,10.80
2019-05-14T11:32:29.147Z,7.20
2019-05-14T11:34:59.140Z,8.03
2019-05-14T11:37:28.621Z,7.83
2019-05-14T11:39:58.181Z,7.90
2019-05-14T11:42:31.512Z,9.57
2019-05-14T11:44:58.657Z,13.13
2019-05-14T11:47:28.134Z,9.33
2019-05-14T11:49:59.210Z,13.10
2019-05-14T11:52:30.858Z,10.30
2019-05-14T11:55:00.198Z,13.40
2019-05-14T11:57:29.373Z,10.63
2019-05-14T11:59:58.638Z,12.07
2019-05-14T12:02:30.774Z,9.17
2019-05-14T12:05:00.133Z,12.80
2019-05-14T12:07:29.394Z,11.57
2019-05-14T12:09:58.722Z,9.17
2019-05-14T12:12:31.018Z,8.50
2019-05-14T12:15:00.271Z,10.23
2019-05-14T12:17:29.616Z,9.67
2019-05-14T12:19:59.498Z,11.47
2019-05-14T12:22:28.930Z,11.93
2019-05-14T12:24:59.990Z,10.83
2019-05-14T12:27:29.341Z,9.87
2019-05-14T12:30:00.651Z,12.17
2019-05-14T12:32:30.046Z,10.50
2019-05-14T12:34:59.465Z,10.60
2019-05-14T12:37:28.979Z,10.23
2019-05-14T12:39:59.072Z,11.13
2019-05-14T12:42:29.591Z,10.73
2019-05-14T12:45:00.494Z,10.53
2019-05-14T12:47:31.095Z,10.63
2019-05-14T12:50:00.381Z,9.93
2019-05-14T12:52:33.845Z,10.30
2019-05-14T12:55:08.882Z,9.37
2019-05-14T12:57:39.295Z,10.13
2019-05-14T13:00:14.541Z,11.43
2019-05-14T13:02:43.894Z,8.37
2019-05-14T13:05:18.439Z,11.30
2019-05-14T13:07:51.561Z,10.37
2019-05-14T13:10:23.287Z,9.00
2019-05-14T13:12:53.882Z,14.70
2019-05-14T13:15:23.570Z,12.57
2019-05-14T13:17:52.858Z,9.83
2019-05-14T13:20:22.229Z,9.50
2019-05-14T13:22:51.658Z,10.23
2019-05-14T13:25:23.653Z,8.40
2019-05-14T13:27:52.944Z,9.37
2019-05-14T13:30:22.282Z,9.10
2019-05-14T13:32:51.571Z,8.50
2019-05-14T13:35:22.151Z,10.73
2019-05-14T13:37:53.214Z,41.60
2019-05-14T13:40:22.791Z,36.90
2019-05-14T13:42:53.254Z,25.03
2019-05-14T13:45:22.523Z,16.80
2019-05-14T13:47:54.074Z,13.03
2019-05-14T13:50:23.366Z,14.67
2019-05-14T13:53:06.920Z,10.63
2019-05-14T13:55:27.986Z,12.13
2019-05-14T13:57:59.641Z,12.87
2019-05-14T14:00:30.735Z,13.63
2019-05-14T14:03:00.019Z,11.57
2019-05-14T14:05:30.575Z,12.57
2019-05-14T14:07:59.951Z,10.97
2019-05-14T14:10:35.451Z,13.63
2019-05-14T14:13:00.286Z,11.23
2019-05-14T14:15:29.591Z,11.37
2019-05-14T14:18:00.419Z,11.73
2019-05-14T14:20:29.926Z,10.07
2019-05-14T14:23:15.947Z,10.47
2019-05-14T14:25:31.263Z,9.53
2019-05-14T14:28:00.566Z,10.80
2019-05-14T14:30:29.971Z,11.93
2019-05-14T14:32:59.171Z,9.90
2019-05-14T14:35:30.465Z,11.60
2019-05-14T14:37:59.434Z,12.10
2019-05-14T14:40:30.122Z,13.47
2019-05-14T14:43:00.001Z,10.20
2019-05-14T14:45:29.496Z,12.63
2019-05-14T14:48:01.421Z,12.07
2019-05-14T14:50:30.178Z,11.60
2019-05-14T14:52:59.960Z,11.80
2019-05-14T14:55:30.518Z,12.67
2019-05-14T14:58:00.766Z,14.23
2019-05-14T15:00:30.215Z,12.60
2019-05-14T15:02:59.913Z,12.80
2019-05-14T15:05:29.860Z,14.93
2019-05-14T15:08:00.180Z,12.73
2019-05-14T15:10:29.771Z,12.97
2019-05-14T15:12:59.282Z,13.80
2019-05-14T15:15:31.922Z,15.53
2019-05-14T15:17:59.746Z,14.93
2019-05-14T15:20:29.168Z,14.90
2019-05-14T15:22:59.998Z,13.33
2019-05-14T15:25:30.126Z,13.57
2019-05-14T15:27:59.613Z,12.10
2019-05-14T15:30:28.935Z,10.37
2019-05-14T15:32:59.775Z,10.53
2019-05-14T15:35:30.056Z,12.03
2019-05-14T15:37:59.343Z,11.20
2019-05-14T15:40:29.118Z,11.07
2019-05-14T15:43:01.768Z,10.67
2019-05-14T15:45:29.586Z,13.27
2019-05-14T15:48:03.473Z,12.03
2019-05-14T15:50:32.759Z,13.73
2019-05-14T15:53:00.918Z,14.67
2019-05-14T15:55:30.233Z,13.87
2019-05-14T15:57:59.497Z,15.37
2019-05-14T16:00:29.231Z,14.47
2019-05-14T16:03:00.241Z,17.47
2019-05-14T16:05:29.854Z,16.77
2019-05-14T16:07:59.574Z,15.10
2019-05-14T16:10:31.021Z,16.23
2019-05-14T16:12:59.881Z,16.97
2019-05-14T16:15:29.201Z,12.30
2019-05-14T16:18:07.162Z,16.23
2019-05-14T16:20:29.744Z,13.93
2019-05-14T16:22:59.179Z,14.40
2019-05-14T16:25:28.692Z,12.53
2019-05-14T16:27:59.343Z,12.93
2019-05-14T16:30:29.288Z,10.13
2019-05-14T16:32:59.816Z,12.83
2019-05-14T16:35:29.329Z,13.30
2019-05-14T16:37:59.174Z,13.27
2019-05-14T16:40:28.883Z,14.00
2019-05-14T16:42:59.187Z,12.53
2019-05-14T16:45:29.042Z,13.87
2019-05-14T16:47:59.366Z,17.53
2019-05-14T16:50:28.926Z,15.07
2019-05-14T16:52:58.905Z,13.20
2019-05-14T16:55:30.579Z,11.73
2019-05-14T16:57:59.502Z,11.10
2019-05-14T17:00:29.446Z,14.57
2019-05-14T17:02:59.128Z,14.97
2019-05-14T17:05:29.878Z,15.67
2019-05-14T17:07:59.571Z,16.60
2019-05-14T17:10:28.829Z,18.87
2019-05-14T17:13:01.658Z,13.30
2019-05-14T17:15:29.132Z,17.10
2019-05-14T17:17:59.694Z,13.30
2019-05-14T17:20:29.262Z,18.03
2019-05-14T17:22:59.449Z,14.30
2019-05-14T17:25:30.503Z,15.93
2019-05-14T17:28:00.027Z,18.57
2019-05-14T17:30:29.351Z,19.40
2019-05-14T17:32:58.997Z,19.27
2019-05-14T17:35:29.858Z,18.77
2019-05-14T17:37:59.426Z,14.53
2019-05-14T17:40:28.741Z,13.73
2019-05-14T17:42:59.242Z,13.57
2019-05-14T17:45:28.705Z,12.17
2019-05-14T17:47:58.581Z,10.53
2019-05-14T17:50:29.198Z,10.73
2019-05-14T17:53:00.153Z,9.33
2019-05-14T17:55:43.586Z,9.57
2019-05-14T17:58:02.973Z,10.47
2019-05-14T18:00:32.678Z,14.70
2019-05-14T18:03:02.059Z,14.00
2019-05-14T18:05:31.482Z,13.13
2019-05-14T18:08:00.790Z,12.90
2019-05-14T18:10:30.175Z,10.80
2019-05-14T18:12:59.983Z,11.53
2019-05-14T18:15:29.507Z,11.67
2019-05-14T18:17:59.085Z,10.90
2019-05-14T18:20:29.175Z,10.17
2019-05-14T18:22:58.651Z,12.03
2019-05-14T18:25:29.085Z,12.33
2019-05-14T18:27:58.638Z,12.50
2019-05-14T18:30:28.984Z,10.47
2019-05-14T18:32:58.563Z,11.70
2019-05-14T18:35:29.531Z,12.30
2019-05-14T18:37:59.066Z,12.93
2019-05-14T18:40:28.328Z,12.60
2019-05-14T18:42:59.162Z,11.43
2019-05-14T18:45:29.399Z,15.10
2019-05-14T18:47:59.296Z,14.63
2019-05-14T18:50:28.997Z,15.13
2019-05-14T18:52:59.691Z,13.50
2019-05-14T18:55:29.540Z,12.47
2019-05-14T18:57:59.459Z,11.83
2019-05-14T19:00:29.566Z,12.27
2019-05-14T19:02:59.121Z,10.80
2019-05-14T19:05:29.557Z,11.03
2019-05-14T19:07:59.407Z,12.87
2019-05-14T19:10:29.122Z,9.77
2019-05-14T19:12:58.922Z,11.60
2019-05-14T19:15:28.437Z,8.70
2019-05-14T19:18:01.061Z,8.50
2019-05-14T19:20:28.862Z,8.90
2019-05-14T19:23:00.181Z,13.23
2019-05-14T19:25:29.273Z,10.13
2019-05-14T19:27:58.598Z,10.13
2019-05-14T19:30:28.614Z,9.20
2019-05-14T19:32:58.145Z,9.17
2019-05-14T19:35:28.692Z,8.07
2019-05-14T19:37:59.477Z,11.07
2019-05-14T19:40:29.501Z,10.43
2019-05-14T19:42:58.838Z,11.03
2019-05-14T19:45:28.231Z,10.40
2019-05-14T19:47:58.404Z,14.00
2019-05-14T19:50:29.492Z,15.43
2019-05-14T19:52:59.124Z,12.27
2019-05-14T19:55:29.010Z,12.27
2019-05-14T19:57:58.479Z,12.87
2019-05-14T20:00:29.015Z,16.17
2019-05-14T20:02:58.558Z,14.80
2019-05-14T20:05:28.701Z,11.97
2019-05-14T20:07:58.264Z,13.27
2019-05-14T20:10:29.151Z,11.37
2019-05-14T20:12:59.083Z,12.87
2019-05-14T20:15:28.719Z,11.83
2019-05-14T20:17:58.259Z,10.13
2019-05-14T20:20:28.840Z,11.60
2019-05-14T20:22:59.077Z,13.03
2019-05-14T20:25:28.548Z,12.23
2019-05-14T20:27:58.727Z,9.43
2019-05-14T20:30:29.559Z,9.03
2019-05-14T20:32:59.423Z,9.87
2019-05-14T20:35:34.569Z,8.67
2019-05-14T20:37:59.705Z,8.97
2019-05-14T20:40:28.962Z,8.20
2019-05-14T20:42:58.911Z,9.43
2019-05-14T20:45:29.060Z,8.73
2019-05-14T20:47:58.747Z,9.30
2019-05-14T20:50:29.038Z,11.17
2019-05-14T20:52:59.176Z,7.87
2019-05-14T20:55:28.923Z,8.63
2019-05-14T20:57:58.899Z,10.57
2019-05-14T21:00:29.313Z,7.67
2019-05-14T21:02:59.499Z,8.10
2019-05-14T21:05:29.213Z,7.07
2019-05-14T21:07:59.028Z,8.60
2019-05-14T21:10:29.209Z,7.07
2019-05-14T21:12:58.805Z,6.83
2019-05-14T21:15:28.818Z,6.50
2019-05-14T21:17:59.635Z,7.40
2019-05-14T21:20:29.200Z,7.17
2019-05-14T21:22:58.746Z,9.67
2019-05-14T21:25:29.548Z,6.83
2019-05-14T21:27:59.162Z,8.80
2019-05-14T21:30:29.676Z,8.13
2019-05-14T21:33:00.483Z,9.00
2019-05-14T21:35:30.047Z,7.47
2019-05-14T21:37:59.693Z,8.93
2019-05-14T21:40:32.006Z,9.03
2019-05-14T21:43:00.098Z,7.80
2019-05-14T21:45:29.657Z,7.87
2019-05-14T21:47:59.547Z,7.27
2019-05-14T21:50:29.069Z,7.53
2019-05-14T21:52:59.595Z,7.30
2019-05-14T21:55:29.179Z,7.10
2019-05-14T21:57:58.441Z,6.33
2019-05-14T22:00:41.411Z,6.50
2019-05-14T22:03:10.309Z,7.97
2019-05-14T22:05:39.469Z,7.67
2019-05-14T22:08:09.114Z,7.10
2019-05-14T22:10:39.874Z,8.10
2019-05-14T22:13:09.741Z,6.90
2019-05-14T22:15:39.267Z,7.80
2019-05-14T22:18:17.386Z,6.37
2019-05-14T22:20:40.009Z,6.03
2019-05-14T22:23:09.270Z,5.57
2019-05-14T22:25:39.541Z,7.23
2019-05-14T22:28:15.383Z,5.60
2019-05-14T22:30:40.078Z,4.90
2019-05-14T22:33:09.341Z,5.63
2019-05-14T22:35:39.487Z,4.63
2019-05-14T22:38:09.202Z,5.97
2019-05-14T22:40:38.994Z,4.20
2019-05-14T22:43:09.377Z,5.60
2019-05-14T22:45:38.788Z,3.67
2019-05-14T22:48:09.321Z,4.70
2019-05-14T22:50:41.432Z,3.80
2019-05-14T22:53:09.753Z,4.17
2019-05-14T22:55:39.022Z,4.13
2019-05-14T22:58:09.960Z,4.37
2019-05-14T23:00:47.263Z,4.77
2019-05-14T23:03:10.262Z,4.40
2019-05-14T23:05:39.517Z,5.00
2019-05-14T23:08:09.004Z,5.47
2019-05-14T23:10:39.005Z,2.53
2019-05-14T23:13:09.333Z,2.80
2019-05-14T23:15:39.061Z,4.13
2019-05-14T23:18:08.725Z,3.20
2019-05-14T23:20:39.162Z,3.83
2019-05-14T23:23:09.292Z,3.80
2019-05-14T23:25:39.007Z,3.27
2019-05-14T23:28:08.635Z,5.73
2019-05-14T23:30:38.855Z,4.27
2019-05-14T23:33:08.368Z,4.23
2019-05-14T23:35:39.047Z,3.57
2019-05-14T23:38:08.605Z,3.60
2019-05-14T23:40:38.805Z,4.23
2019-05-14T23:43:08.199Z,4.57
2019-05-14T23:45:38.034Z,4.70
2019-05-14T23:48:09.535Z,4.67
2019-05-14T23:50:38.702Z,6.03
2019-05-14T23:53:09.174Z,4.27
2019-05-14T23:55:38.798Z,4.10
2019-05-14T23:58:08.455Z,4.90
